Time;durP1;ratioP1;P1;durP2;ratioP2;P2;SDS_P1;SDS_P2;PMS_P1;PMS_P2;Temp;Humidity;BMP_temperature;BMP_pressure;BME280_temperature;BME280_humidity;BME280_pressure;Samples;Min_cycle;Max_cycle;Signal;HPM_P1;HPM_P2
2021/07/09 00:02:06;;;;;;;;;7.25;7.25;;;;;20.13;61.24;102026.97;5014883;28;45383;-74
2021/07/09 00:04:32;;;;;;;;;6.75;5.75;;;;;20.12;60.80;102022.56;5014446;28;45553;-74
2021/07/09 00:06:58;;;;;;;;;5.00;5.00;;;;;20.14;60.86;102031.34;5014152;28;45409;-74
2021/07/09 00:09:26;;;;;;;;;7.50;6.50;;;;;20.15;60.88;102033.03;5016879;28;45397;-75
2021/07/09 00:11:53;;;;;;;;;7.25;6.75;;;;;20.15;61.05;102033.94;5014444;28;46222;-74
2021/07/09 00:14:22;;;;;;;;;6.50;5.75;;;;;20.15;60.66;102036.59;5011937;28;45756;-75
2021/07/09 00:16:48;;;;;;;;;5.25;4.00;;;;;20.14;61.20;102040.19;5015168;28;45554;-74
2021/07/09 00:19:14;;;;;;;;;4.75;4.75;;;;;20.15;60.65;102035.72;5014756;28;45583;-74
2021/07/09 00:21:40;;;;;;;;;4.75;4.25;;;;;20.14;61.09;102031.34;5014967;28;45555;-75
2021/07/09 00:24:07;;;;;;;;;5.75;5.50;;;;;20.14;61.12;102029.53;5015750;28;45539;-74
2021/07/09 00:26:33;;;;;;;;;4.00;4.00;;;;;20.15;60.62;102025.03;5017723;28;45377;-75
2021/07/09 00:28:59;;;;;;;;;5.25;3.50;;;;;20.14;60.91;102023.31;5016228;28;45515;-75
2021/07/09 00:31:25;;;;;;;;;4.50;4.50;;;;;20.13;61.52;102021.63;5014554;28;46022;-75
2021/07/09 00:33:50;;;;;;;;;4.75;4.75;;;;;20.13;60.90;102027.81;5014856;28;46003;-75
2021/07/09 00:36:17;;;;;;;;;6.00;5.00;;;;;20.14;61.33;102028.66;5014378;28;45483;-75
2021/07/09 00:38:43;;;;;;;;;5.25;3.75;;;;;20.13;61.14;102033.16;5015334;28;45446;-75
2021/07/09 00:41:08;;;;;;;;;5.00;5.00;;;;;20.15;60.83;102033.03;5014125;28;45225;-74
2021/07/09 00:43:34;;;;;;;;;5.50;3.75;;;;;20.14;61.32;102034.84;5013873;28;45453;-75
2021/07/09 00:46:00;;;;;;;;;6.00;4.50;;;;;20.16;61.39;102032.97;5014350;28;45542;-75
2021/07/09 00:48:28;;;;;;;;;4.25;3.75;;;;;20.15;61.21;102031.25;5013653;28;45614;-75
2021/07/09 00:50:58;;;;;;;;;5.25;4.00;;;;;20.13;61.21;102024.28;5014144;28;45553;-74
2021/07/09 00:53:24;;;;;;;;;5.25;4.00;;;;;20.10;61.16;102028.03;5014306;28;45408;-75
2021/07/09 00:55:49;;;;;;;;;5.00;4.50;;;;;20.08;61.83;102030.75;5014492;28;45491;-75
2021/07/09 00:58:15;;;;;;;;;6.25;5.00;;;;;20.04;61.49;102031.91;5012929;28;45455;-75
2021/07/09 01:00:40;;;;;;;;;4.50;3.75;;;;;20.00;61.93;102027.72;5013903;28;45375;-75
2021/07/09 01:03:07;;;;;;;;;5.50;4.00;;;;;19.96;61.87;102036.88;5014331;28;45400;-75
2021/07/09 01:05:33;;;;;;;;;7.00;4.00;;;;;19.95;61.96;102040.50;5014762;28;45581;-75
2021/07/09 01:07:58;;;;;;;;;3.25;3.25;;;;;19.93;61.61;102034.38;5014204;28;45382;-75
2021/07/09 01:10:24;;;;;;;;;4.75;3.75;;;;;19.91;62.13;102044.31;5011778;28;46212;-75
2021/07/09 01:12:50;;;;;;;;;6.25;6.00;;;;;19.88;61.71;102044.47;5014082;28;48045;-75
2021/07/09 01:15:18;;;;;;;;;5.75;5.75;;;;;19.84;61.70;102040.31;5014098;28;45304;-75
2021/07/09 01:17:44;;;;;;;;;6.00;4.25;;;;;19.80;62.38;102041.44;5013698;28;45401;-75
2021/07/09 01:20:12;;;;;;;;;4.75;4.25;;;;;19.75;62.21;102041.72;5013727;28;46527;-75
2021/07/09 01:22:39;;;;;;;;;7.50;5.00;;;;;19.73;62.22;102045.41;5013608;28;45692;-75
2021/07/09 01:25:09;;;;;;;;;5.00;3.50;;;;;19.70;62.70;102041.13;5013578;28;45470;-75
2021/07/09 01:27:37;;;;;;;;;6.25;6.25;;;;;19.68;63.15;102055.50;5013869;28;45499;-75
2021/07/09 01:30:09;;;;;;;;;4.50;4.50;;;;;19.66;62.90;102052.06;5013090;28;46321;-74
2021/07/09 01:32:34;;;;;;;;;4.50;4.50;;;;;19.64;63.50;102046.84;5013902;28;45820;-75
2021/07/09 01:35:00;;;;;;;;;4.50;4.50;;;;;19.65;63.42;102045.03;5016109;28;45321;-75
2021/07/09 01:37:26;;;;;;;;;5.00;5.00;;;;;19.64;63.43;102043.31;5018210;28;45538;-75
2021/07/09 01:39:51;;;;;;;;;9.50;7.50;;;;;19.64;63.91;102043.31;5017722;28;45420;-76
2021/07/09 01:42:16;;;;;;;;;4.50;4.50;;;;;19.64;64.25;102048.66;5017840;28;45479;-76
2021/07/09 01:44:44;;;;;;;;;8.25;7.25;;;;;19.62;64.33;102054.06;5018440;28;49491;-75
2021/07/09 01:47:10;;;;;;;;;5.50;4.25;;;;;19.63;64.40;102054.91;5018792;28;45587;-75
2021/07/09 01:49:53;;;;;;;;;14.00;5.50;;;;;19.62;64.57;102055.88;5017585;28;46147;-75
2021/07/09 01:52:20;;;;;;;;;7.75;5.00;;;;;19.60;64.29;102052.44;5018367;28;45719;-75
2021/07/09 01:54:46;;;;;;;;;5.00;4.25;;;;;19.55;64.63;102044.69;5018207;28;45567;-75
2021/07/09 01:57:12;;;;;;;;;6.00;4.75;;;;;19.53;64.76;102042.13;5018289;28;45786;-75
2021/07/09 01:59:39;;;;;;;;;10.00;7.50;;;;;19.51;64.61;102038.66;5018321;28;45545;-75
2021/07/09 02:02:06;;;;;;;;;9.00;8.00;;;;;19.51;64.71;102036.00;5019022;28;45349;-76
2021/07/09 02:04:31;;;;;;;;;7.25;7.25;;;;;19.50;65.27;102028.97;5017827;28;45359;-75
2021/07/09 02:06:57;;;;;;;;;9.75;6.75;;;;;19.51;65.32;102028.00;5018253;28;45304;-74
2021/07/09 02:09:22;;;;;;;;;6.25;5.75;;;;;19.49;65.42;102029.91;5015044;28;46943;-76
2021/07/09 02:11:47;;;;;;;;;4.75;4.75;;;;;19.48;65.67;102036.22;5017569;28;53527;-75
2021/07/09 02:14:12;;;;;;;;;6.00;4.25;;;;;19.47;65.35;102034.50;5018485;28;45485;-75
2021/07/09 02:16:40;;;;;;;;;7.00;5.75;;;;;19.47;65.38;102030.94;5017137;28;45483;-75
2021/07/09 02:19:06;;;;;;;;;6.00;6.00;;;;;19.45;65.42;102028.38;5015204;28;46068;-75
2021/07/09 02:21:31;;;;;;;;;6.75;5.00;;;;;19.43;65.59;102024.09;5015994;28;45485;-75
2021/07/09 02:23:56;;;;;;;;;8.25;7.25;;;;;19.42;65.72;102028.59;5016147;28;45604;-75
2021/07/09 02:26:22;;;;;;;;;7.00;6.75;;;;;19.38;65.78;102027.03;5017331;28;45302;-75
2021/07/09 02:28:47;;;;;;;;;9.50;7.00;;;;;19.36;65.59;102033.41;5016341;28;45900;-75
2021/07/09 02:31:13;;;;;;;;;7.00;7.00;;;;;19.31;65.96;102033.66;5015973;28;45468;-75
2021/07/09 02:33:38;;;;;;;;;5.00;5.00;;;;;19.27;65.96;102027.69;5016111;28;45421;-75
2021/07/09 02:36:04;;;;;;;;;8.50;6.25;;;;;19.23;66.37;102027.94;5015959;28;45493;-75
2021/07/09 02:38:29;;;;;;;;;7.25;6.00;;;;;19.19;66.16;102026.41;5015093;28;45630;-75
2021/07/09 02:40:54;;;;;;;;;7.50;6.00;;;;;19.14;66.44;102016.00;5016206;28;45376;-75
2021/07/09 02:43:20;;;;;;;;;8.50;8.50;;;;;19.09;66.70;102019.88;5016461;28;45260;-76
2021/07/09 02:45:45;;;;;;;;;11.25;8.00;;;;;19.03;66.58;102011.31;5016680;28;45475;-75
2021/07/09 02:48:10;;;;;;;;;9.75;7.25;;;;;18.96;67.00;102011.75;5014766;28;63044;-75
2021/07/09 02:50:36;;;;;;;;;8.00;7.00;;;;;18.97;67.40;102018.81;5015790;28;45464;-75
2021/07/09 02:53:01;;;;;;;;;9.00;9.00;;;;;18.93;67.47;102015.44;5016232;28;45776;-75
2021/07/09 02:55:26;;;;;;;;;5.75;5.75;;;;;18.88;67.55;102019.31;5014232;28;45964;-76
2021/07/09 02:57:52;;;;;;;;;6.50;6.25;;;;;18.88;67.36;102022.84;5015569;28;46165;-75
2021/07/09 03:00:18;;;;;;;;;7.00;7.00;;;;;18.85;67.74;102020.38;5016177;28;45379;-75
2021/07/09 03:02:44;;;;;;;;;7.00;5.75;;;;;18.84;68.07;102023.09;5016026;28;45513;-75
2021/07/09 03:05:10;;;;;;;;;9.50;8.25;;;;;18.82;68.30;102025.00;5016539;28;45286;-75
2021/07/09 03:07:37;;;;;;;;;9.25;7.50;;;;;18.80;68.44;102014.44;5030226;28;47259;-76
2021/07/09 03:10:08;;;;;;;;;8.00;7.50;;;;;18.78;68.29;102011.84;5015499;28;45270;-75
2021/07/09 03:12:34;;;;;;;;;9.50;8.50;;;;;18.78;68.25;102013.66;5015912;28;45497;-75
2021/07/09 03:14:59;;;;;;;;;8.00;8.00;;;;;18.75;68.66;102016.53;5015202;28;45514;-75
2021/07/09 03:17:24;;;;;;;;;9.00;7.25;;;;;18.70;68.25;102014.13;5015743;28;45565;-75
2021/07/09 03:19:50;;;;;;;;;8.25;7.00;;;;;18.67;68.67;102016.03;5014083;28;45622;-75
2021/07/09 03:22:15;;;;;;;;;8.25;7.00;;;;;18.66;68.60;102017.00;5014041;28;45569;-75
2021/07/09 03:24:40;;;;;;;;;8.00;7.75;;;;;18.62;68.91;102018.97;5015847;28;45437;-75
2021/07/09 03:27:08;;;;;;;;;8.25;7.25;;;;;18.59;68.85;102011.16;5015797;28;45441;-75
2021/07/09 03:29:33;;;;;;;;;8.25;6.75;;;;;18.52;68.72;101999.97;5015817;28;45322;-75
2021/07/09 03:31:59;;;;;;;;;12.00;8.50;;;;;18.47;68.88;102004.72;5016182;28;45511;-75
2021/07/09 03:34:24;;;;;;;;;9.00;8.75;;;;;18.40;68.81;102003.34;5014149;28;46698;-75
2021/07/09 03:36:51;;;;;;;;;7.00;6.00;;;;;18.36;69.32;102003.59;5013988;28;50377;-75
2021/07/09 03:39:17;;;;;;;;;12.25;8.75;;;;;18.31;69.69;102001.19;5014627;28;45529;-75
2021/07/09 03:41:42;;;;;;;;;8.75;7.75;;;;;18.28;69.51;102003.19;5015464;28;45444;-75
2021/07/09 03:44:08;;;;;;;;;9.75;9.00;;;;;18.23;69.50;102004.28;5015213;28;45449;-75
2021/07/09 03:46:35;;;;;;;;;12.00;10.00;;;;;18.23;69.62;102016.72;5014770;28;45975;-75
2021/07/09 03:49:00;;;;;;;;;7.00;7.00;;;;;18.20;69.62;102009.75;5013941;28;45503;-75
2021/07/09 03:51:25;;;;;;;;;10.75;10.25;;;;;18.19;69.77;102005.38;5014739;28;46313;-75
2021/07/09 03:53:54;;;;;;;;;16.00;10.00;;;;;18.17;69.61;102006.44;5015070;28;45522;-75
2021/07/09 03:56:25;;;;;;;;;11.00;8.50;;;;;18.14;70.22;102002.13;5015530;28;46084;-75
2021/07/09 03:58:50;;;;;;;;;10.75;9.00;;;;;18.12;70.01;102008.47;5015144;28;45762;-75
2021/07/09 04:01:16;;;;;;;;;11.50;9.75;;;;;18.09;70.36;102005.97;5029882;28;45633;-75
2021/07/09 04:03:41;;;;;;;;;8.50;8.00;;;;;18.06;70.42;102006.13;5028956;28;45820;-75
2021/07/09 04:06:07;;;;;;;;;10.25;10.25;;;;;18.06;70.68;102014.09;5014803;28;46215;-75
2021/07/09 04:08:32;;;;;;;;;11.50;9.00;;;;;18.04;70.48;102005.38;5015053;28;45468;-75
2021/07/09 04:10:57;;;;;;;;;8.00;7.75;;;;;18.03;70.96;102015.16;5014414;28;45273;-76
2021/07/09 04:13:23;;;;;;;;;10.00;8.00;;;;;18.01;71.15;102017.03;5013998;28;45534;-77
2021/07/09 04:15:48;;;;;;;;;9.50;9.50;;;;;18.00;71.11;102023.28;5013697;28;51844;-76
2021/07/09 04:18:14;;;;;;;;;12.50;9.75;;;;;17.98;71.09;102026.03;5014019;28;45772;-76
2021/07/09 04:20:39;;;;;;;;;11.00;11.00;;;;;17.96;71.35;102025.25;5014643;28;45464;-75
2021/07/09 04:23:04;;;;;;;;;13.50;11.00;;;;;17.95;71.20;102020.84;5015289;28;45611;-76
2021/07/09 04:25:30;;;;;;;;;11.50;10.50;;;;;17.96;71.46;102027.06;4996310;28;46383;-75
2021/07/09 04:27:55;;;;;;;;;18.25;9.50;;;;;17.95;71.69;102012.88;5014037;28;45616;-75
2021/07/09 04:30:21;;;;;;;;;13.00;9.25;;;;;17.94;71.54;102019.16;5014020;28;45355;-75
2021/07/09 04:32:46;;;;;;;;;15.25;10.50;;;;;17.95;71.40;102020.00;5014327;28;45542;-75
2021/07/09 04:35:12;;;;;;;;;9.75;9.50;;;;;17.98;71.74;102017.19;5014531;28;45801;-76
2021/07/09 04:37:38;;;;;;;;;14.75;10.25;;;;;18.04;71.35;102016.84;5013354;28;45774;-75
2021/07/09 04:40:04;;;;;;;;;12.75;11.25;;;;;18.11;71.08;102020.88;5014039;28;45547;-75
2021/07/09 04:42:30;;;;;;;;;14.75;11.00;;;;;18.22;71.65;102015.88;5014189;28;45504;-75
2021/07/09 04:44:55;;;;;;;;;13.00;11.00;;;;;18.32;71.63;102021.53;5014426;28;46040;-75
2021/07/09 04:47:20;;;;;;;;;13.50;11.00;;;;;18.41;71.49;102028.16;5013122;28;45315;-75
2021/07/09 04:49:46;;;;;;;;;14.25;12.00;;;;;18.52;71.16;102023.94;5013921;28;45463;-75
2021/07/09 04:52:11;;;;;;;;;14.25;11.00;;;;;18.63;70.78;102030.47;5013666;28;45448;-75
2021/07/09 04:54:37;;;;;;;;;12.75;12.25;;;;;18.75;70.87;102035.16;5013522;28;45348;-76
2021/07/09 04:57:02;;;;;;;;;9.25;8.25;;;;;18.82;71.27;102028.53;5013941;28;45384;-75
2021/07/09 04:59:27;;;;;;;;;13.25;11.25;;;;;18.90;70.89;102028.97;5014765;28;45473;-75
2021/07/09 05:01:53;;;;;;;;;13.25;8.25;;;;;18.97;70.90;102026.78;5014206;28;47669;-75
2021/07/09 05:04:18;;;;;;;;;10.25;10.25;;;;;19.03;70.66;102027.28;5014361;28;45566;-75
2021/07/09 05:06:43;;;;;;;;;14.00;11.50;;;;;19.09;70.26;102030.53;5013709;28;45573;-75
2021/07/09 05:09:09;;;;;;;;;11.75;10.00;;;;;19.15;70.06;102027.53;5013016;28;45765;-75
2021/07/09 05:11:35;;;;;;;;;11.00;10.50;;;;;19.22;70.27;102029.75;5013931;28;45444;-74
2021/07/09 05:14:03;;;;;;;;;11.75;10.75;;;;;19.32;70.25;102027.41;5014743;28;45487;-74
2021/07/09 05:16:29;;;;;;;;;11.75;11.00;;;;;19.45;70.00;102027.53;5013272;28;45515;-74
2021/07/09 05:18:56;;;;;;;;;12.00;9.25;;;;;19.56;69.84;102036.59;5013109;28;45486;-74
2021/07/09 05:21:22;;;;;;;;;11.75;10.25;;;;;19.66;69.45;102036.06;5013370;28;45217;-74
2021/07/09 05:23:47;;;;;;;;;16.75;12.75;;;;;19.74;68.70;102029.34;5014235;28;46204;-74
2021/07/09 05:26:13;;;;;;;;;12.50;9.50;;;;;19.85;68.30;102034.00;5013988;28;45428;-74
2021/07/09 05:28:38;;;;;;;;;11.50;9.50;;;;;19.93;68.07;102038.84;5013245;28;45397;-74
2021/07/09 05:31:03;;;;;;;;;9.00;7.00;;;;;20.00;67.71;102027.72;5012937;28;45538;-74
2021/07/09 05:33:29;;;;;;;;;7.75;7.00;;;;;20.08;67.71;102032.56;5004019;28;46084;-74
2021/07/09 05:35:55;;;;;;;;;9.00;9.00;;;;;20.18;67.47;102030.19;5011309;28;45476;-74
2021/07/09 05:38:20;;;;;;;;;11.75;10.50;;;;;20.26;66.94;102044.78;5013013;28;45441;-73
2021/07/09 05:40:46;;;;;;;;;15.75;12.00;;;;;20.32;66.78;102044.41;5013070;28;47200;-73
2021/07/09 05:43:11;;;;;;;;;10.00;8.75;;;;;20.41;66.27;102044.75;5013197;28;45642;-75
2021/07/09 05:45:37;;;;;;;;;12.25;10.75;;;;;20.49;65.86;102047.84;5014779;28;45720;-75
2021/07/09 05:48:02;;;;;;;;;12.25;9.25;;;;;20.55;65.24;102040.28;5016975;28;45353;-75
2021/07/09 05:50:28;;;;;;;;;11.75;11.25;;;;;20.66;65.24;102049.41;5016588;28;45350;-75
2021/07/09 05:52:55;;;;;;;;;13.50;8.75;;;;;20.76;65.75;102054.06;5017525;28;45400;-75
2021/07/09 05:55:20;;;;;;;;;8.00;8.00;;;;;20.88;65.10;102046.19;5016301;28;45656;-75
2021/07/09 05:57:46;;;;;;;;;11.75;7.00;;;;;20.98;65.73;102045.50;5017185;28;45478;-75
2021/07/09 06:00:12;;;;;;;;;12.00;10.00;;;;;21.08;65.05;102043.94;5016990;28;45629;-75
2021/07/09 06:02:37;;;;;;;;;9.00;9.00;;;;;21.18;65.30;102043.31;5031561;28;46909;-75
2021/07/09 06:05:04;;;;;;;;;12.75;10.75;;;;;21.29;64.50;102046.13;5016224;28;45377;-75
2021/07/09 06:07:30;;;;;;;;;7.75;6.75;;;;;21.37;64.55;102043.84;5016646;28;45436;-76
2021/07/09 06:09:55;;;;;;;;;11.00;9.00;;;;;21.42;63.62;102046.19;5016255;28;45428;-76
2021/07/09 06:12:20;;;;;;;;;12.50;11.75;;;;;21.44;63.49;102058.50;5016385;28;46132;-74
2021/07/09 06:14:46;;;;;;;;;12.25;9.00;;;;;21.50;63.55;102050.03;5016064;28;45391;-77
2021/07/09 06:17:11;;;;;;;;;13.00;10.25;;;;;21.57;63.25;102051.38;5017360;28;45874;-74
2021/07/09 06:19:36;;;;;;;;;9.25;9.00;;;;;21.63;63.49;102045.59;5031140;28;45394;-74
2021/07/09 06:22:02;;;;;;;;;10.00;8.00;;;;;21.72;63.65;102056.63;5015760;28;45418;-74
2021/07/09 06:24:27;;;;;;;;;11.50;9.00;;;;;21.77;63.53;102054.47;5014703;28;45396;-75
2021/07/09 06:26:53;;;;;;;;;10.50;10.50;;;;;21.79;62.99;102058.75;5016734;28;45380;-77
2021/07/09 06:29:18;;;;;;;;;11.00;8.50;;;;;21.79;63.19;102056.09;5015909;28;45333;-76
2021/07/09 06:31:44;;;;;;;;;9.00;7.25;;;;;21.81;63.26;102056.81;5016441;28;46194;-75
2021/07/09 06:34:09;;;;;;;;;8.50;7.75;;;;;21.82;62.73;102053.22;5016412;28;45317;-75
2021/07/09 06:36:34;;;;;;;;;12.00;10.50;;;;;21.83;63.26;102049.56;5016388;28;45455;-75
2021/07/09 06:39:00;;;;;;;;;12.75;10.75;;;;;21.84;63.21;102059.31;5015876;28;45446;-75
2021/07/09 06:41:25;;;;;;;;;11.75;10.00;;;;;21.87;62.73;102060.88;5015620;28;45916;-75
2021/07/09 06:43:50;;;;;;;;;12.00;8.50;;;;;21.93;62.84;102063.16;5005221;28;45465;-76
2021/07/09 06:46:16;;;;;;;;;17.50;11.75;;;;;22.02;63.08;102067.84;5027488;28;45588;-75
2021/07/09 06:48:41;;;;;;;;;15.00;13.25;;;;;22.09;61.60;102071.81;5016157;28;45333;-75
2021/07/09 06:51:07;;;;;;;;;12.25;10.00;;;;;22.15;61.37;102067.91;5011609;28;46106;-75
2021/07/09 06:53:33;;;;;;;;;11.75;10.00;;;;;22.20;61.48;102072.94;5014500;28;45470;-75
2021/07/09 06:55:58;;;;;;;;;14.50;12.00;;;;;22.26;61.23;102070.66;5012158;28;45407;-74
2021/07/09 06:58:23;;;;;;;;;11.75;9.25;;;;;22.33;61.32;102063.03;5027016;28;45526;-75
2021/07/09 07:00:48;;;;;;;;;10.00;8.00;;;;;22.46;61.58;102069.25;5014222;28;48936;-75
2021/07/09 07:03:14;;;;;;;;;10.25;8.00;;;;;22.56;60.98;102078.31;5014042;28;45488;-75
2021/07/09 07:05:40;;;;;;;;;9.00;8.50;;;;;22.66;60.67;102081.19;5014055;28;45542;-74
2021/07/09 07:08:16;;;;;;;;;11.75;9.00;;;;;22.72;59.98;102079.91;5016390;28;45495;-75
2021/07/09 07:10:41;;;;;;;;;14.50;10.25;;;;;22.79;60.09;102073.09;5015136;28;46179;-74
2021/07/09 07:13:07;;;;;;;;;11.75;10.00;;;;;22.86;59.89;102087.75;5014930;28;45511;-75
2021/07/09 07:15:32;;;;;;;;;11.00;10.00;;;;;22.94;59.61;102072.00;5008177;28;45666;-75
2021/07/09 07:17:57;;;;;;;;;13.00;10.00;;;;;23.07;59.19;102077.31;5006942;28;51387;-75
2021/07/09 07:20:23;;;;;;;;;9.75;8.50;;;;;23.21;59.32;102084.34;5010625;28;46576;-75
2021/07/09 07:22:48;;;;;;;;;13.00;12.00;;;;;23.33;59.55;102084.25;5009692;28;45771;-76
2021/07/09 07:25:13;;;;;;;;;17.25;11.00;;;;;23.43;59.22;102073.69;4997814;28;45465;-75
2021/07/09 07:27:39;;;;;;;;;9.75;8.75;;;;;23.49;58.89;102075.94;4994317;28;45520;-75
2021/07/09 07:30:05;;;;;;;;;12.00;10.75;;;;;23.55;59.08;102078.13;5007602;28;47258;-75
2021/07/09 07:32:31;;;;;;;;;12.50;11.00;;;;;23.62;58.33;102073.13;4991297;28;45644;-75
2021/07/09 07:34:56;;;;;;;;;10.75;9.00;;;;;23.69;58.85;102077.94;4995412;28;45319;-75
2021/07/09 07:37:22;;;;;;;;;15.00;10.25;;;;;23.72;57.52;102081.38;4994725;28;45487;-75
2021/07/09 07:39:47;;;;;;;;;12.50;11.25;;;;;23.76;58.15;102074.81;4995258;28;45412;-75
2021/07/09 07:42:13;;;;;;;;;106.75;96.00;;;;;23.82;57.93;102079.69;4994969;28;45718;-75
2021/07/09 07:44:38;;;;;;;;;96.25;86.00;;;;;23.89;57.98;102081.75;4993304;28;45517;-74
2021/07/09 07:47:05;;;;;;;;;11.00;10.50;;;;;23.94;57.24;102074.19;4992160;28;45499;-75
2021/07/09 07:49:30;;;;;;;;;18.50;14.25;;;;;23.99;56.63;102073.84;4990538;28;45825;-74
2021/07/09 07:51:55;;;;;;;;;15.00;13.50;;;;;24.01;57.34;102071.03;4994843;28;45711;-75
2021/07/09 07:54:21;;;;;;;;;17.00;15.50;;;;;23.94;56.06;102073.34;4994729;28;45695;-75
2021/07/09 07:56:46;;;;;;;;;14.25;13.25;;;;;23.86;56.67;102081.16;5004481;28;45357;-75
2021/07/09 07:59:12;;;;;;;;;15.75;12.00;;;;;23.84;57.08;102073.22;4989769;28;45493;-75
2021/07/09 08:01:37;;;;;;;;;14.50;11.50;;;;;23.90;56.90;102077.25;4994831;28;45449;-75
2021/07/09 08:04:03;;;;;;;;;15.75;11.00;;;;;23.92;56.43;102070.78;4995267;28;45613;-75
2021/07/09 08:06:28;;;;;;;;;15.00;13.00;;;;;24.00;55.88;102075.56;4994943;28;45551;-75
2021/07/09 08:08:54;;;;;;;;;13.00;12.50;;;;;24.05;55.73;102078.72;4998112;28;45855;-75
2021/07/09 08:11:19;;;;;;;;;15.25;13.50;;;;;24.08;55.66;102075.81;4992354;28;45419;-75
2021/07/09 08:13:44;;;;;;;;;13.25;13.25;;;;;24.20;55.96;102074.84;4994467;28;45885;-75
2021/07/09 08:16:11;;;;;;;;;15.50;12.50;;;;;24.26;55.23;102073.50;4994743;28;45312;-77
2021/07/09 08:18:37;;;;;;;;;12.00;11.25;;;;;24.27;54.66;102069.81;4994612;28;45512;-75
2021/07/09 08:21:03;;;;;;;;;13.50;9.50;;;;;24.33;54.29;102065.81;4993780;28;45531;-76
2021/07/09 08:23:29;;;;;;;;;11.50;10.00;;;;;24.39;53.71;102060.81;4994337;28;45342;-76
2021/07/09 08:25:55;;;;;;;;;18.25;12.00;;;;;24.45;53.79;102062.16;5000546;28;46609;-76
2021/07/09 08:28:21;;;;;;;;;10.25;8.50;;;;;24.51;54.41;102061.66;5012782;28;46141;-75
2021/07/09 08:30:47;;;;;;;;;9.00;8.25;;;;;24.60;54.18;102054.69;5013713;28;45430;-75
2021/07/09 08:33:12;;;;;;;;;12.00;8.25;;;;;24.71;54.87;102057.34;4990101;28;45723;-76
2021/07/09 08:35:38;;;;;;;;;14.25;11.50;;;;;24.77;53.02;102054.16;5013021;28;52153;-75
2021/07/09 08:38:04;;;;;;;;;10.75;9.50;;;;;24.76;53.51;102059.66;5016313;28;45535;-75
2021/07/09 08:40:29;;;;;;;;;12.75;9.50;;;;;24.77;54.31;102058.69;5012369;28;45543;-75
2021/07/09 08:42:54;;;;;;;;;12.25;9.25;;;;;24.80;53.60;102045.84;5008796;28;45921;-76
2021/07/09 08:45:20;;;;;;;;;11.00;9.00;;;;;24.92;53.38;102054.72;5007008;28;45428;-75
2021/07/09 08:47:47;;;;;;;;;13.50;10.25;;;;;25.05;53.49;102043.78;5014152;28;45680;-74
2021/07/09 08:50:13;;;;;;;;;10.00;8.50;;;;;25.23;53.22;102039.59;5019529;28;45388;-75
2021/07/09 08:52:42;;;;;;;;;12.75;9.50;;;;;25.36;51.90;102042.09;5019019;28;45483;-75
2021/07/09 08:55:13;;;;;;;;;11.00;11.00;;;;;25.33;52.14;102043.22;5020806;28;45463;-75
2021/07/09 08:57:42;;;;;;;;;10.00;10.00;;;;;25.36;51.57;102042.94;5016803;28;46796;-75
2021/07/09 09:00:26;;;;;;;;;9.00;7.50;;;;;25.44;51.95;102051.25;5022817;28;45370;-75
2021/07/09 09:02:52;;;;;;;;;12.25;11.00;;;;;25.48;51.74;102041.06;5017435;28;45973;-75
2021/07/09 09:05:28;;;;;;;;;55.75;43.25;;;;;25.56;51.14;102043.09;5019241;28;45365;-74
2021/07/09 09:08:02;;;;;;;;;12.25;10.00;;;;;25.55;50.90;102042.25;5017035;28;46195;-75
2021/07/09 09:10:40;;;;;;;;;9.75;8.25;;;;;25.54;50.70;102042.38;5015110;28;45471;-75
2021/07/09 09:13:10;;;;;;;;;9.00;8.25;;;;;25.54;50.56;102042.38;5030107;28;45530;-75
2021/07/09 09:15:38;;;;;;;;;8.00;7.00;;;;;25.57;50.95;102044.78;5015549;28;45397;-75
2021/07/09 09:18:29;;;;;;;;;10.25;7.00;;;;;25.69;51.78;102041.06;5015788;28;45485;-74
2021/07/09 09:21:01;;;;;;;;;12.00;8.00;;;;;25.91;51.41;102049.00;5013691;28;45920;-74
2021/07/09 09:23:28;;;;;;;;;9.50;8.25;;;;;26.18;51.51;102047.56;5021758;28;45554;-75
2021/07/09 09:25:54;;;;;;;;;8.00;8.00;;;;;26.36;50.44;102042.38;5023272;28;45428;-74
2021/07/09 09:28:20;;;;;;;;;12.00;8.00;;;;;26.40;49.85;102055.44;5012186;28;46208;-74
2021/07/09 09:30:49;;;;;;;;;9.00;6.00;;;;;26.47;49.35;102048.56;5015284;28;45634;-74
2021/07/09 09:33:15;;;;;;;;;6.00;6.00;;;;;26.62;49.04;102048.16;5010913;28;45495;-74
2021/07/09 09:35:47;;;;;;;;;9.25;7.75;;;;;26.83;49.42;102053.44;5016560;28;45496;-74
2021/07/09 09:38:15;;;;;;;;;9.25;7.50;;;;;26.98;49.11;102052.88;4998279;28;45400;-75
2021/07/09 09:40:44;;;;;;;;;8.50;8.50;;;;;27.03;48.12;102050.63;5012647;28;45420;-75
2021/07/09 09:43:12;;;;;;;;;26.00;23.25;;;;;26.97;47.99;102050.34;5017609;28;45497;-75
2021/07/09 09:45:39;;;;;;;;;10.50;8.75;;;;;27.03;48.44;102045.22;5010639;28;45451;-75
2021/07/09 09:48:09;;;;;;;;;9.00;6.00;;;;;27.18;48.31;102044.84;5011869;28;46830;-78
2021/07/09 09:50:46;;;;;;;;;7.00;6.75;;;;;27.36;48.04;102034.19;5012473;28;45436;-75
2021/07/09 09:53:12;;;;;;;;;11.00;8.00;;;;;27.51;47.37;102041.69;5010583;28;45438;-75
2021/07/09 09:55:38;;;;;;;;;9.50;8.00;;;;;27.68;47.97;102037.38;5010453;28;45397;-75
2021/07/09 09:58:12;;;;;;;;;7.25;7.25;;;;;27.79;47.80;102033.69;5008007;28;45460;-75
2021/07/09 10:00:39;;;;;;;;;8.50;6.50;;;;;27.94;46.89;102039.47;5006421;28;45497;-75
2021/07/09 10:03:05;;;;;;;;;8.50;7.50;;;;;27.87;46.91;102033.78;5011154;28;45448;-76
2021/07/09 10:05:36;;;;;;;;;11.00;9.00;;;;;27.81;46.05;102034.38;5012736;28;45433;-75
2021/07/09 10:08:01;;;;;;;;;8.75;7.00;;;;;27.66;45.71;102036.66;5014246;28;45627;-78
2021/07/09 10:10:28;;;;;;;;;15.50;12.50;;;;;27.52;47.02;102027.19;5009600;28;45515;-77
2021/07/09 10:12:55;;;;;;;;;7.25;5.50;;;;;27.48;46.98;102031.16;5009627;28;45596;-76
2021/07/09 10:15:21;;;;;;;;;7.75;7.25;;;;;27.48;45.53;102033.03;5013675;28;45502;-76
2021/07/09 10:17:52;;;;;;;;;7.75;6.00;;;;;27.41;45.77;102037.31;4999015;28;45449;-76
2021/07/09 10:20:18;;;;;;;;;8.25;8.25;;;;;27.49;45.94;102029.31;4998107;28;45727;-75
2021/07/09 10:22:46;;;;;;;;;13.25;7.75;;;;;27.68;45.78;102029.28;5010167;28;45440;-78
2021/07/09 10:25:12;;;;;;;;;7.00;6.00;;;;;27.81;44.76;102029.81;5009517;28;45871;-76
2021/07/09 10:27:42;;;;;;;;;9.00;7.50;;;;;27.81;44.40;102027.13;5007241;28;49041;-77
2021/07/09 10:30:08;;;;;;;;;8.25;8.25;;;;;27.93;44.15;102037.75;5015776;28;45501;-75
2021/07/09 10:32:46;;;;;;;;;9.00;6.25;;;;;28.02;44.19;102031.47;5030436;28;45559;-76
2021/07/09 10:35:34;;;;;;;;;11.00;7.25;;;;;28.23;44.13;102029.38;5010336;28;45502;-75
2021/07/09 10:38:56;;;;;;;;;7.25;6.00;;;;;28.39;44.04;102028.75;5002486;28;46380;-75
2021/07/09 10:41:23;;;;;;;;;6.25;5.50;;;;;28.56;44.13;102027.09;5005393;28;45523;-74
2021/07/09 10:44:13;;;;;;;;;7.75;6.75;;;;;28.59;44.41;102030.34;5029815;28;45839;-76
2021/07/09 10:46:39;;;;;;;;;7.75;7.75;;;;;28.55;44.91;102028.94;5014621;28;45497;-74
2021/07/09 10:49:04;;;;;;;;;8.50;8.50;;;;;28.62;43.63;102029.19;5009797;28;45947;-74
2021/07/09 10:51:50;;;;;;;;;8.75;7.50;;;;;28.70;43.57;102023.84;5005482;28;45472;-75
2021/07/09 10:54:30;;;;;;;;;8.25;8.25;;;;;28.99;43.91;102020.13;5015014;28;45670;-75
2021/07/09 10:57:17;;;;;;;;;8.00;7.50;;;;;29.18;43.43;102022.63;5016273;28;45444;-75
2021/07/09 11:00:21;;;;;;;;;7.50;6.00;;;;;29.23;43.61;102017.59;4999011;28;45451;-73
2021/07/09 11:05:43;;;;;;;;;9.50;6.00;;;;;29.08;43.04;102006.50;5365752;22;46477;-70
2021/07/09 11:08:30;;;;;;;;;3.00;3.00;;;;;29.15;42.84;102004.00;4952978;28;45420;-72
2021/07/09 11:10:55;;;;;;;;;7.50;5.50;;;;;29.28;42.70;102006.31;4957981;28;46396;-70
2021/07/09 11:13:43;;;;;;;;;6.25;5.25;;;;;29.38;43.14;102004.34;4958296;28;45571;-70
2021/07/09 11:16:21;;;;;;;;;4.25;4.25;;;;;29.44;42.50;102008.28;4957076;28;45527;-69
2021/07/09 11:19:07;;;;;;;;;8.25;5.25;;;;;29.64;42.43;101998.97;4938663;28;45529;-69
2021/07/09 11:21:33;;;;;;;;;6.50;4.50;;;;;29.81;42.74;101995.34;4953842;28;46013;-69
2021/07/09 11:24:02;;;;;;;;;5.00;4.00;;;;;29.74;41.28;101988.03;4959016;28;45393;-70